Time,TemperatureF,DewpointF,PressureIn,WindDirection,WindDirectionDegrees,WindSpeedMPH,WindSpeedGustMPH,Humidity,HourlyPrecipIn,Conditions,Clouds,dailyrainin,SoftwareType,DateUTC
2013-07-11 07:22:00,48.0,46.0,-100.00,South,186,1.0,2.0,94,-99.99,,,0.00,,2013-07-11 13:22:00,
2013-07-11 08:23:00,53.0,51.0,-100.00,WNW,290,1.0,2.0,91,0.00,,,0.00,,2013-07-11 14:23:00,
2013-07-11 08:35:00,53.0,51.0,-100.00,WNW,290,1.0,2.0,91,0.00,,,0.00,,2013-07-11 14:35:00,
2013-07-11 08:44:00,53.0,51.0,-100.00,WNW,290,1.0,2.0,91,0.00,,,0.00,,2013-07-11 14:44:00,
2013-07-11 08:53:00,53.0,51.0,-100.00,WNW,290,1.0,2.0,91,0.00,,,0.00,,2013-07-11 14:53:00,
2013-07-11 09:23:00,60.0,52.0,-100.00,South,187,2.0,4.0,73,0.00,,,0.00,,2013-07-11 15:23:00,
2013-07-11 09:44:00,60.0,52.0,-100.00,South,187,2.0,4.0,73,0.00,,,0.00,,2013-07-11 15:44:00,
2013-07-11 09:53:00,60.0,52.0,-100.00,South,187,2.0,4.0,73,0.00,,,0.00,,2013-07-11 15:53:00,
2013-07-11 09:54:00,72.0,47.0,-100.00,South,182,2.0,5.0,40,0.00,,,0.00,,2013-07-11 15:54:00,
2013-07-11 10:22:00,72.0,47.0,-100.00,South,182,2.0,5.0,40,0.00,,,0.00,,2013-07-11 16:22:00,
2013-07-11 10:34:00,72.0,47.0,-100.00,South,182,2.0,5.0,40,0.00,,,0.00,,2013-07-11 16:34:00,
2013-07-11 10:44:00,72.0,47.0,-100.00,South,182,2.0,5.0,40,0.00,,,0.00,,2013-07-11 16:44:00,
2013-07-11 11:35:00,72.0,42.0,-100.00,SSW,200,6.0,9.0,33,0.00,,,0.00,,2013-07-11 17:35:00,
2013-07-11 11:44:00,72.0,42.0,-100.00,SSW,200,6.0,9.0,33,0.00,,,0.00,,2013-07-11 17:44:00,
2013-07-11 11:52:00,72.0,42.0,-100.00,SSW,200,6.0,9.0,33,0.00,,,0.00,,2013-07-11 17:52:00,
2013-07-11 12:22:00,73.0,41.0,-100.00,SSW,194,6.0,12.0,32,0.00,,,0.00,,2013-07-11 18:22:00,
2013-07-11 12:34:00,73.0,41.0,-100.00,SSW,194,6.0,12.0,32,0.00,,,0.00,,2013-07-11 18:34:00,
2013-07-11 12:45:00,73.0,41.0,-100.00,SSW,194,6.0,12.0,32,0.00,,,0.00,,2013-07-11 18:45:00,
2013-07-11 12:53:00,73.0,41.0,-100.00,SSW,194,6.0,12.0,32,0.00,,,0.00,,2013-07-11 18:53:00,
2013-07-11 13:23:00,73.0,45.0,-100.00,SW,232,7.0,14.0,36,0.00,,,0.00,,2013-07-11 19:23:00,
2013-07-11 13:35:00,73.0,45.0,-100.00,SW,232,7.0,14.0,36,0.00,,,0.00,,2013-07-11 19:35:00,
2013-07-11 13:44:00,73.0,45.0,-100.00,SW,232,7.0,14.0,36,0.00,,,0.00,,2013-07-11 19:44:00,
2013-07-11 14:24:00,76.0,45.0,-100.00,SW,219,5.0,7.0,34,0.00,,,0.00,,2013-07-11 20:24:00,
2013-07-11 14:35:00,76.0,45.0,-100.00,SW,219,5.0,7.0,34,0.00,,,0.00,,2013-07-11 20:35:00,
2013-07-11 14:45:00,76.0,45.0,-100.00,SW,219,5.0,7.0,34,0.00,,,0.00,,2013-07-11 20:45:00,
2013-07-11 14:52:00,76.0,45.0,-100.00,SW,219,5.0,7.0,34,0.00,,,0.00,,2013-07-11 20:52:00,
2013-07-11 15:23:00,72.0,46.0,-100.00,SSW,203,4.0,6.0,39,0.00,,,0.00,,2013-07-11 21:23:00,
2013-07-11 15:33:00,72.0,46.0,-100.00,SSW,203,4.0,6.0,39,0.00,,,0.00,,2013-07-11 21:33:00,
2013-07-11 15:44:00,72.0,46.0,-100.00,SSW,203,4.0,6.0,39,0.00,,,0.00,,2013-07-11 21:44:00,
2013-07-11 15:52:00,72.0,46.0,-100.00,SSW,203,4.0,6.0,39,0.00,,,0.00,,2013-07-11 21:52:00,
2013-07-11 16:22:00,68.0,43.0,-100.00,West,281,6.0,10.0,40,0.00,,,0.00,,2013-07-11 22:22:00,
2013-07-11 16:32:00,68.0,43.0,-100.00,West,281,6.0,10.0,40,0.00,,,0.00,,2013-07-11 22:32:00,
2013-07-11 16:53:00,68.0,43.0,-100.00,West,281,6.0,10.0,40,0.00,,,0.00,,2013-07-11 22:53:00,
2013-07-11 17:23:00,66.0,46.0,-100.00,West,259,6.0,12.0,49,0.00,,,0.00,,2013-07-11 23:23:00,
2013-07-11 17:33:00,66.0,46.0,-100.00,West,259,6.0,12.0,49,0.00,,,0.00,,2013-07-11 23:33:00,
2013-07-11 17:44:00,66.0,46.0,-100.00,West,259,6.0,12.0,49,0.00,,,0.00,,2013-07-11 23:44:00,
2013-07-11 17:53:00,66.0,46.0,-100.00,West,259,6.0,12.0,49,0.00,,,0.00,,2013-07-11 23:53:00,
2013-07-11 18:13:00,62.0,50.0,-100.00,SSW,202,6.0,10.0,65,0.00,,,0.00,,2013-07-12 00:13:00,
2013-07-11 18:23:00,62.0,50.0,-100.00,SSW,202,6.0,10.0,65,0.00,,,0.00,,2013-07-12 00:23:00,
2013-07-11 18:34:00,62.0,50.0,-100.00,SSW,202,6.0,10.0,65,0.00,,,0.00,,2013-07-12 00:34:00,
2013-07-11 18:43:00,62.0,50.0,-100.00,SSW,202,6.0,10.0,65,0.00,,,0.00,,2013-07-12 00:43:00,
2013-07-11 19:24:00,56.0,52.0,-100.00,South,185,6.0,9.0,86,0.00,,,0.00,,2013-07-12 01:24:00,
2013-07-11 19:33:00,56.0,52.0,-100.00,South,185,6.0,9.0,86,0.00,,,0.00,,2013-07-12 01:33:00,
2013-07-11 19:44:00,56.0,52.0,-100.00,South,185,6.0,9.0,86,0.00,,,0.00,,2013-07-12 01:44:00,
2013-07-11 19:53:00,56.0,52.0,-100.00,South,185,6.0,9.0,86,0.00,,,0.00,,2013-07-12 01:53:00,
2013-07-11 20:15:00,56.0,51.0,-100.00,South,170,5.0,9.0,85,0.01,,,0.01,,2013-07-12 02:15:00,
2013-07-11 20:24:00,56.0,51.0,-100.00,South,170,5.0,9.0,85,0.01,,,0.01,,2013-07-12 02:24:00,
2013-07-11 20:34:00,56.0,51.0,-100.00,South,170,5.0,9.0,85,0.01,,,0.01,,2013-07-12 02:34:00,
2013-07-11 20:43:00,56.0,51.0,-100.00,South,170,5.0,9.0,85,0.01,,,0.01,,2013-07-12 02:43:00,
2013-07-11 20:52:00,56.0,51.0,-100.00,South,170,5.0,9.0,85,0.01,,,0.01,,2013-07-12 02:52:00,
2013-07-11 21:13:00,55.0,50.0,-100.00,SSE,165,5.0,9.0,84,0.00,,,0.01,,2013-07-12 03:13:00,
2013-07-11 21:23:00,55.0,50.0,-100.00,SSE,165,5.0,9.0,84,0.00,,,0.01,,2013-07-12 03:23:00,
2013-07-11 21:34:00,55.0,50.0,-100.00,SSE,165,5.0,9.0,84,0.00,,,0.01,,2013-07-12 03:34:00,
2013-07-11 21:43:00,55.0,50.0,-100.00,SSE,165,5.0,9.0,84,0.00,,,0.01,,2013-07-12 03:43:00,
2013-07-11 21:53:00,55.0,50.0,-100.00,SSE,165,5.0,9.0,84,0.00,,,0.01,,2013-07-12 03:53:00,
2013-07-11 22:11:00,53.0,50.0,-100.00,SW,231,2.0,5.0,88,0.00,,,0.01,,2013-07-12 04:11:00,
2013-07-11 22:21:00,53.0,50.0,-100.00,SW,231,2.0,5.0,88,0.00,,,0.01,,2013-07-12 04:21:00,
2013-07-11 22:32:00,53.0,50.0,-100.00,SW,231,2.0,5.0,88,0.00,,,0.01,,2013-07-12 04:32:00,
2013-07-11 22:43:00,53.0,50.0,-100.00,SW,231,2.0,5.0,88,0.00,,,0.01,,2013-07-12 04:43:00,
2013-07-11 22:53:00,53.0,50.0,-100.00,SW,231,2.0,5.0,88,0.00,,,0.01,,2013-07-12 04:53:00,
2013-07-11 23:11:00,53.0,49.0,-100.00,WSW,257,5.0,6.0,88,0.00,,,0.01,,2013-07-12 05:11:00,
2013-07-11 23:22:00,53.0,49.0,-100.00,WSW,257,5.0,6.0,88,0.00,,,0.01,,2013-07-12 05:22:00,
2013-07-11 23:32:00,53.0,49.0,-100.00,WSW,257,5.0,6.0,88,0.00,,,0.01,,2013-07-12 05:32:00,
2013-07-11 23:42:00,53.0,49.0,-100.00,WSW,257,5.0,6.0,88,0.00,,,0.01,,2013-07-12 05:42:00,
2013-07-11 23:53:00,53.0,49.0,-100.00,WSW,257,5.0,6.0,88,0.00,,,0.01,,2013-07-12 05:53:00,